createdAt,value
2018-01-16T10:34:04.000Z,21.05
2018-01-16T10:34:14.000Z,21.02
2018-01-16T10:34:24.000Z,21.02
2018-01-16T10:34:34.000Z,20.96
2018-01-16T10:34:44.000Z,20.96
2018-01-16T10:34:54.000Z,20.96
2018-01-16T10:35:04.000Z,21.00
2018-01-16T10:35:14.000Z,20.95
2018-01-16T10:35:24.000Z,20.96
2018-01-16T10:35:34.000Z,20.96
2018-01-16T10:35:44.000Z,21.05
2018-01-16T10:35:54.000Z,21.02
2018-01-16T10:36:04.000Z,21.03
2018-01-16T10:36:14.000Z,21.02
2018-01-16T10:36:24.000Z,21.02
2018-01-16T10:36:34.000Z,21.02
2018-01-16T10:36:44.000Z,20.96
2018-01-16T10:36:54.000Z,21.00
2018-01-16T10:37:04.000Z,21.00
2018-01-16T10:37:14.000Z,20.99
2018-01-16T10:37:24.000Z,21.00
2018-01-16T10:37:34.000Z,20.88
2018-01-16T10:37:44.000Z,20.82
2018-01-16T10:37:54.000Z,20.74
2018-01-16T10:38:04.000Z,20.59
2018-01-16T10:38:14.000Z,20.74
2018-01-16T10:38:24.000Z,20.69
2018-01-16T10:38:34.000Z,20.60
2018-01-16T10:38:44.000Z,20.51
2018-01-16T10:38:54.000Z,20.51
2018-01-16T10:39:04.000Z,20.60
2018-01-16T10:39:14.000Z,20.59
2018-01-16T10:39:24.000Z,20.67
2018-01-16T10:39:34.000Z,20.60
2018-01-16T10:39:44.000Z,20.58
2018-01-16T10:39:54.000Z,20.60
2018-01-16T10:40:04.000Z,20.65
2018-01-16T10:40:14.000Z,20.65
2018-01-16T10:40:24.000Z,20.72
2018-01-16T10:40:34.000Z,20.72
2018-01-16T10:40:44.000Z,20.85
2018-01-16T10:40:54.000Z,20.92
2018-01-16T10:41:04.000Z,21.00
2018-01-16T10:41:14.000Z,21.03
2018-01-16T10:41:24.000Z,21.20
2018-01-16T10:41:34.000Z,21.20
2018-01-16T10:41:44.000Z,21.27
2018-01-16T10:41:54.000Z,21.27
2018-01-16T10:42:04.000Z,21.35
2018-01-16T10:42:14.000Z,21.25
2018-01-16T10:42:24.000Z,21.43
2018-01-16T10:42:34.000Z,21.42
2018-01-16T10:42:44.000Z,21.42
2018-01-16T10:42:54.000Z,21.50
2018-01-16T10:43:04.000Z,21.62
2018-01-16T10:43:14.000Z,21.64
2018-01-16T10:43:24.000Z,21.70
